Weather at Trinidad Ranch Airport

Public forecast

Using degrees Fahrenheit for public forecast. Weather courtesy of forecast.io.

Closest aviation weather report (METAR) to Trinidad Ranch Airport

Closest report is Edwards County Airport, 20.2 nm (37.3 km) SW. Retrieved 2022/06/24 21:55 UTC (12 minutes ago):

KECU 242155Z AUTO 16012KT 10SM CLR 36/10 A2997 RMK AO2

Closest aviation forecast (TAF) to Trinidad Ranch Airport

Closest forecast is Kimble County Airport, 21.5 nm (39.8 km) NNE. Retrieved 2022/06/24 18:45 UTC (3 hours ago):

TAF KJCT 241742Z 2418/2518 17012G20KT P6SM FEW080 FM250000 14006KT P6SM SKC FM251500 19006KT P6SM SKC